createdAt,value
2018-12-13T00:02:07.832Z,-0.20
2018-12-13T00:04:35.338Z,-0.30
2018-12-13T00:07:02.854Z,-0.30
2018-12-13T00:09:30.294Z,-0.30
2018-12-13T00:11:57.764Z,-0.40
2018-12-13T00:14:25.213Z,-0.30
2018-12-13T00:16:52.687Z,-0.40
2018-12-13T00:19:20.187Z,-0.40
2018-12-13T00:21:47.682Z,-0.40
2018-12-13T00:24:15.164Z,-0.40
2018-12-13T00:26:42.630Z,-0.40
2018-12-13T00:29:10.087Z,-0.40
2018-12-13T00:31:37.551Z,-0.40
2018-12-13T00:34:05.023Z,-0.40
2018-12-13T00:36:32.495Z,-0.50
2018-12-13T00:38:59.959Z,-0.50
2018-12-13T00:41:27.409Z,-0.50
2018-12-13T00:43:54.879Z,-0.50
2018-12-13T00:46:22.335Z,-0.50
2018-12-13T00:48:49.791Z,-0.40
2018-12-13T00:51:17.262Z,-0.40
2018-12-13T00:53:44.717Z,-0.40
2018-12-13T00:56:12.213Z,-0.50
2018-12-13T00:58:39.676Z,-0.50
2018-12-13T01:01:07.199Z,-0.50
2018-12-13T01:03:34.662Z,-0.50
2018-12-13T01:06:02.159Z,-0.50
2018-12-13T01:08:29.702Z,-0.40
2018-12-13T01:10:57.179Z,-0.40
2018-12-13T01:13:24.650Z,-0.50
2018-12-13T01:15:52.168Z,-0.50
2018-12-13T01:18:19.630Z,-0.60
2018-12-13T01:20:47.125Z,-0.60
2018-12-13T01:23:14.587Z,-0.60
2018-12-13T01:25:42.030Z,-0.60
2018-12-13T01:28:09.498Z,-0.50
2018-12-13T01:30:36.963Z,-0.50
2018-12-13T01:33:04.430Z,-0.60
2018-12-13T01:35:31.882Z,-0.60
2018-12-13T01:37:59.326Z,-0.60
2018-12-13T01:40:26.801Z,-0.70
2018-12-13T01:42:54.243Z,-0.70
2018-12-13T01:45:21.719Z,-0.80
2018-12-13T01:47:49.216Z,-0.90
2018-12-13T01:50:16.665Z,-0.90
2018-12-13T01:52:44.143Z,-1.00
2018-12-13T01:55:11.652Z,-1.00
2018-12-13T01:57:39.200Z,-0.90
2018-12-13T02:00:06.689Z,-0.90
2018-12-13T02:02:34.198Z,-0.80
2018-12-13T02:05:01.684Z,-0.80
2018-12-13T02:07:29.145Z,-0.90
2018-12-13T02:09:56.624Z,-0.80
2018-12-13T02:12:24.078Z,-0.90
2018-12-13T02:14:51.535Z,-0.90
2018-12-13T02:17:19.054Z,-0.90
2018-12-13T02:19:46.592Z,-0.90
2018-12-13T02:22:14.054Z,-1.00
2018-12-13T02:24:41.525Z,-0.90
2018-12-13T02:27:09.604Z,-0.90
2018-12-13T02:29:37.043Z,-1.00
2018-12-13T02:32:04.501Z,-1.00
2018-12-13T02:34:31.963Z,-1.00
2018-12-13T02:37:05.752Z,-1.00
2018-12-13T02:39:28.868Z,-1.10
2018-12-13T02:41:56.336Z,-1.00
2018-12-13T02:44:23.788Z,-1.10
2018-12-13T02:46:51.284Z,-1.10
2018-12-13T02:49:19.394Z,-1.10
2018-12-13T02:51:46.851Z,-1.10
2018-12-13T02:54:14.335Z,-1.20
2018-12-13T02:56:41.788Z,-1.20
2018-12-13T02:59:09.293Z,-1.10
2018-12-13T03:01:36.777Z,-1.20
2018-12-13T03:04:04.261Z,-1.20
2018-12-13T03:06:31.746Z,-1.20
2018-12-13T03:08:59.239Z,-1.20
2018-12-13T03:11:26.709Z,-1.20
2018-12-13T03:13:54.199Z,-1.30
2018-12-13T03:16:21.728Z,-1.30
2018-12-13T03:18:49.306Z,-1.30
2018-12-13T03:21:16.770Z,-1.30
2018-12-13T03:23:44.238Z,-1.40
2018-12-13T03:26:11.734Z,-1.40
2018-12-13T03:28:39.192Z,-1.40
2018-12-13T03:31:06.657Z,-1.40
2018-12-13T03:33:34.137Z,-1.40
2018-12-13T03:36:01.617Z,-1.40
2018-12-13T03:38:29.070Z,-1.40
2018-12-13T03:40:56.566Z,-1.40
2018-12-13T03:43:24.069Z,-1.50
2018-12-13T03:45:51.516Z,-1.50
2018-12-13T03:48:19.007Z,-1.50
2018-12-13T03:50:46.562Z,-1.50
2018-12-13T03:53:14.073Z,-1.40
2018-12-13T03:55:41.581Z,-1.40
2018-12-13T03:58:09.119Z,-1.50
2018-12-13T04:03:29.142Z,-1.60
2018-12-13T04:05:56.601Z,-1.60
2018-12-13T04:08:24.125Z,-1.60
2018-12-13T04:10:51.618Z,-1.70
2018-12-13T04:13:19.119Z,-1.70
2018-12-13T04:15:46.599Z,-1.80
2018-12-13T04:18:14.094Z,-1.80
2018-12-13T04:20:41.547Z,-1.80
2018-12-13T04:23:08.997Z,-1.80
2018-12-13T04:25:36.485Z,-1.90
2018-12-13T04:28:04.106Z,-1.90
2018-12-13T04:30:31.627Z,-2.00
2018-12-13T04:32:59.113Z,-2.00
2018-12-13T04:35:26.577Z,-2.00
2018-12-13T04:37:54.059Z,-1.90
2018-12-13T04:40:21.529Z,-1.90
2018-12-13T04:42:48.975Z,-1.90
2018-12-13T04:45:16.456Z,-1.80
2018-12-13T04:47:43.917Z,-1.90
2018-12-13T04:50:11.381Z,-1.90
2018-12-13T04:52:38.900Z,-1.90
2018-12-13T04:55:06.367Z,-2.00
2018-12-13T04:57:34.611Z,-2.00
2018-12-13T05:00:02.166Z,-2.00
2018-12-13T05:02:29.644Z,-2.00
2018-12-13T05:04:57.110Z,-2.00
2018-12-13T05:07:24.590Z,-2.00
2018-12-13T05:09:52.030Z,-2.10
2018-12-13T05:12:19.513Z,-2.10
2018-12-13T05:14:46.988Z,-2.10
2018-12-13T05:17:15.374Z,-2.10
2018-12-13T05:19:42.843Z,-2.10
2018-12-13T05:22:10.342Z,-2.10
2018-12-13T05:24:37.813Z,-2.10
2018-12-13T05:27:05.269Z,-2.20
2018-12-13T05:29:32.740Z,-2.10
2018-12-13T05:32:00.235Z,-2.10
2018-12-13T05:34:27.784Z,-2.10
2018-12-13T05:36:55.330Z,-2.20
2018-12-13T05:39:22.792Z,-2.20
2018-12-13T05:41:50.254Z,-2.20
2018-12-13T05:44:19.658Z,-2.20
2018-12-13T05:46:47.112Z,-2.20
2018-12-13T05:49:15.491Z,-2.20
2018-12-13T05:51:42.971Z,-2.30
2018-12-13T05:54:10.396Z,-2.20
2018-12-13T05:56:37.878Z,-2.30
2018-12-13T05:59:05.367Z,-2.30
2018-12-13T06:01:32.954Z,-2.30
2018-12-13T06:04:00.613Z,-2.40
2018-12-13T06:06:28.092Z,-2.40
2018-12-13T06:08:55.587Z,-2.50
2018-12-13T06:11:23.091Z,-2.50
2018-12-13T06:13:50.573Z,-2.40
2018-12-13T06:16:18.045Z,-2.40
2018-12-13T06:18:45.509Z,-2.40
2018-12-13T06:21:12.973Z,-2.50
2018-12-13T06:23:40.455Z,-2.50
2018-12-13T06:26:08.711Z,-2.50
2018-12-13T06:28:36.177Z,-2.50
2018-12-13T06:31:03.664Z,-2.60
2018-12-13T06:33:31.144Z,-2.60
2018-12-13T06:35:58.593Z,-2.50
2018-12-13T06:38:26.083Z,-2.60
2018-12-13T06:40:53.601Z,-2.70
2018-12-13T06:43:21.067Z,-2.80
2018-12-13T06:45:48.527Z,-2.80
2018-12-13T06:48:16.056Z,-2.80
2018-12-13T06:50:43.552Z,-2.80
2018-12-13T06:53:11.006Z,-2.70
2018-12-13T06:55:38.477Z,-2.70
2018-12-13T06:58:05.995Z,-2.60
2018-12-13T07:00:33.483Z,-2.70
2018-12-13T07:03:00.965Z,-2.60
2018-12-13T07:05:28.582Z,-2.60
2018-12-13T07:07:56.076Z,-2.70
2018-12-13T07:10:23.542Z,-2.70
2018-12-13T07:12:51.046Z,-2.70
2018-12-13T07:15:18.536Z,-2.70
2018-12-13T07:17:46.009Z,-2.70
2018-12-13T07:20:13.492Z,-2.80
2018-12-13T07:22:40.991Z,-2.80
2018-12-13T07:25:08.499Z,-2.80
2018-12-13T07:27:36.000Z,-2.80
2018-12-13T07:30:05.715Z,-2.80
2018-12-13T07:32:33.193Z,-2.80
2018-12-13T07:35:01.436Z,-2.70
2018-12-13T07:37:29.222Z,-2.70
2018-12-13T07:39:56.713Z,-2.70
2018-12-13T07:42:24.197Z,-2.60
2018-12-13T07:44:51.685Z,-2.60
2018-12-13T07:47:19.166Z,-2.70
2018-12-13T07:49:46.648Z,-2.70
2018-12-13T07:52:14.150Z,-2.60
2018-12-13T07:54:41.835Z,-2.60
2018-12-13T07:57:09.307Z,-2.60
2018-12-13T07:59:36.788Z,-2.60
2018-12-13T08:02:04.317Z,-2.70
2018-12-13T08:04:31.785Z,-2.80
2018-12-13T08:06:59.303Z,-2.80
2018-12-13T08:09:26.773Z,-2.70
2018-12-13T08:11:54.277Z,-2.70
2018-12-13T08:14:21.760Z,-2.70
2018-12-13T08:16:49.266Z,-2.70
2018-12-13T08:19:16.734Z,-2.60
2018-12-13T08:21:44.220Z,-2.50
2018-12-13T08:24:11.727Z,-2.50
2018-12-13T08:26:39.207Z,-2.50
2018-12-13T08:29:06.750Z,-2.50
2018-12-13T08:31:34.210Z,-2.50
2018-12-13T08:34:01.667Z,-2.50
2018-12-13T08:36:29.163Z,-2.50
2018-12-13T08:38:56.682Z,-2.50
2018-12-13T08:41:24.146Z,-2.50
2018-12-13T08:43:52.548Z,-2.40
2018-12-13T08:46:20.040Z,-2.40
2018-12-13T08:48:47.498Z,-2.30
2018-12-13T08:51:14.972Z,-2.30
2018-12-13T08:53:42.466Z,-2.30
2018-12-13T08:56:09.944Z,-2.30
2018-12-13T08:58:37.515Z,-2.40
2018-12-13T09:01:05.006Z,-2.40
2018-12-13T09:03:32.496Z,-2.40
2018-12-13T09:05:59.957Z,-2.40
2018-12-13T09:08:33.432Z,-2.30
2018-12-13T09:10:56.877Z,-2.30
2018-12-13T09:13:24.325Z,-2.30
2018-12-13T09:15:51.823Z,-2.30
2018-12-13T09:18:19.273Z,-2.30
2018-12-13T09:20:46.723Z,-2.40
2018-12-13T09:23:14.221Z,-2.30
2018-12-13T09:25:41.732Z,-2.30
2018-12-13T09:28:09.209Z,-2.30
2018-12-13T09:30:36.672Z,-2.20
2018-12-13T09:33:04.158Z,-2.20
2018-12-13T09:35:31.658Z,-2.10
2018-12-13T09:37:59.133Z,-2.10
2018-12-13T09:40:26.596Z,-2.00
2018-12-13T09:42:54.064Z,-2.10
2018-12-13T09:45:21.554Z,-2.10
2018-12-13T09:47:49.046Z,-2.10
2018-12-13T09:50:16.617Z,-2.00
2018-12-13T09:52:44.102Z,-1.90
2018-12-13T09:55:11.587Z,-1.90
2018-12-13T09:57:39.041Z,-1.80
2018-12-13T10:00:08.629Z,-1.80
2018-12-13T10:02:36.141Z,-1.90
2018-12-13T10:05:04.362Z,-2.00
2018-12-13T10:07:31.810Z,-2.00
2018-12-13T10:09:59.272Z,-2.00
2018-12-13T10:12:26.750Z,-2.10
2018-12-13T10:14:54.208Z,-2.00
2018-12-13T10:17:21.668Z,-2.00
2018-12-13T10:19:49.137Z,-2.10
2018-12-13T10:22:16.600Z,-2.00
2018-12-13T10:24:44.054Z,-2.10
2018-12-13T10:27:11.532Z,-2.10
2018-12-13T10:29:39.011Z,-2.20
2018-12-13T10:32:06.489Z,-2.10
2018-12-13T10:34:33.967Z,-2.10
2018-12-13T10:37:01.437Z,-2.00
2018-12-13T10:39:28.890Z,-2.00
2018-12-13T10:41:56.366Z,-2.00
2018-12-13T10:44:25.727Z,-1.90
2018-12-13T10:46:54.168Z,-2.00
2018-12-13T10:49:21.866Z,-2.00
2018-12-13T10:51:49.319Z,-2.20
2018-12-13T10:54:16.808Z,-2.30
2018-12-13T10:56:44.513Z,-2.30
2018-12-13T10:59:12.022Z,-2.30
2018-12-13T11:01:40.371Z,-2.30
2018-12-13T11:04:08.166Z,-2.10
2018-12-13T11:06:35.633Z,-1.90
2018-12-13T11:11:46.338Z,-1.80
2018-12-13T11:14:13.815Z,-1.60
2018-12-13T11:16:41.297Z,-1.50
2018-12-13T11:19:08.776Z,-1.50
2018-12-13T11:21:36.264Z,-1.50
2018-12-13T11:24:03.726Z,-1.40
2018-12-13T11:26:31.204Z,-1.20
2018-12-13T11:29:10.485Z,-1.10
2018-12-13T11:31:37.999Z,-0.90
2018-12-13T11:34:05.508Z,-0.90
2018-12-13T11:36:33.018Z,-0.90
2018-12-13T11:39:05.773Z,-0.70
2018-12-13T11:41:29.949Z,-0.60
2018-12-13T11:43:57.437Z,-0.50
2018-12-13T11:46:24.902Z,-0.40
2018-12-13T11:48:52.385Z,-0.50
2018-12-13T11:51:19.951Z,-0.60
2018-12-13T11:53:47.494Z,-0.60
2018-12-13T11:56:15.025Z,-0.60
2018-12-13T11:58:42.512Z,-0.60
2018-12-13T12:01:09.999Z,-0.70
2018-12-13T12:03:39.370Z,-0.70
2018-12-13T12:06:06.858Z,-0.70
2018-12-13T12:08:34.350Z,-0.70
2018-12-13T12:11:01.829Z,-0.50
2018-12-13T12:13:29.322Z,-0.40
2018-12-13T12:15:56.794Z,-0.50
2018-12-13T12:18:24.285Z,-0.60
2018-12-13T12:20:51.766Z,-0.80
2018-12-13T12:23:19.236Z,-0.90
2018-12-13T12:25:46.774Z,-0.90
2018-12-13T12:28:14.242Z,-0.90
2018-12-13T12:30:42.048Z,-1.10
2018-12-13T12:33:09.500Z,-1.10
2018-12-13T12:35:36.989Z,-1.20
2018-12-13T12:38:04.481Z,-1.30
2018-12-13T12:40:31.970Z,-1.30
2018-12-13T12:42:59.456Z,-1.50
2018-12-13T12:45:26.943Z,-1.70
2018-12-13T12:47:54.440Z,-1.70
2018-12-13T12:50:21.931Z,-1.80
2018-12-13T12:52:49.408Z,-1.80
2018-12-13T12:55:16.869Z,-1.80
2018-12-13T12:57:44.350Z,-1.80
2018-12-13T13:00:11.850Z,-1.80
2018-12-13T13:02:39.368Z,-1.80
2018-12-13T13:05:06.874Z,-1.80
2018-12-13T13:07:34.347Z,-1.80
2018-12-13T13:10:01.831Z,-1.90
2018-12-13T13:12:29.785Z,-1.90
2018-12-13T13:14:57.252Z,-2.00
2018-12-13T13:17:24.738Z,-1.90
2018-12-13T13:19:52.191Z,-1.80
2018-12-13T13:22:19.656Z,-1.60
2018-12-13T13:24:47.127Z,-1.50
2018-12-13T13:27:15.517Z,-1.40
2018-12-13T13:29:42.994Z,-1.40
2018-12-13T13:32:10.466Z,-1.50
2018-12-13T13:34:37.974Z,-1.50
2018-12-13T13:37:05.470Z,-1.50
2018-12-13T13:39:32.950Z,-1.50
2018-12-13T13:42:00.431Z,-1.50
2018-12-13T13:44:29.865Z,-1.70
2018-12-13T13:46:57.344Z,-1.70
2018-12-13T13:49:24.850Z,-1.70
2018-12-13T13:51:52.306Z,-1.70
2018-12-13T13:54:19.778Z,-1.60
2018-12-13T13:56:47.263Z,-1.50
2018-12-13T13:59:15.884Z,-1.50
2018-12-13T14:01:43.378Z,-1.40
2018-12-13T14:04:15.671Z,-1.40
2018-12-13T14:06:43.501Z,-1.40
2018-12-13T14:09:10.949Z,-1.40
2018-12-13T14:11:38.744Z,-1.50
2018-12-13T14:14:06.197Z,-1.60
2018-12-13T14:16:33.654Z,-1.60
2018-12-13T14:19:01.122Z,-1.60
2018-12-13T14:21:28.571Z,-1.60
2018-12-13T14:23:56.043Z,-1.50
2018-12-13T14:26:23.486Z,-1.40
2018-12-13T14:28:50.965Z,-1.40
2018-12-13T14:31:18.403Z,-1.30
2018-12-13T14:33:46.778Z,-1.30
2018-12-13T14:36:14.233Z,-1.30
2018-12-13T14:38:41.678Z,-1.30
2018-12-13T14:41:09.151Z,-1.30
2018-12-13T14:43:36.614Z,-1.40
2018-12-13T14:46:04.253Z,-1.50
2018-12-13T14:48:31.702Z,-1.50
2018-12-13T14:50:59.154Z,-1.50
2018-12-13T14:53:26.614Z,-1.60
2018-12-13T14:55:54.070Z,-1.60
2018-12-13T14:58:21.554Z,-1.60
2018-12-13T15:00:48.999Z,-1.70
2018-12-13T15:03:16.477Z,-1.80
2018-12-13T15:05:43.977Z,-1.70
2018-12-13T15:08:11.452Z,-1.80
2018-12-13T15:10:38.911Z,-1.70
2018-12-13T15:13:06.399Z,-1.70
2018-12-13T15:15:33.856Z,-1.60
2018-12-13T15:18:01.342Z,-1.70
2018-12-13T15:20:28.808Z,-1.70
2018-12-13T15:22:56.278Z,-1.80
2018-12-13T15:25:23.760Z,-1.80
2018-12-13T15:27:51.232Z,-1.80
2018-12-13T15:30:18.730Z,-1.90
2018-12-13T15:32:46.185Z,-1.90
2018-12-13T15:35:13.929Z,-1.90
2018-12-13T15:37:41.388Z,-1.80
2018-12-13T15:40:08.859Z,-1.80
2018-12-13T15:42:36.450Z,-1.80
2018-12-13T15:45:05.199Z,-1.80
2018-12-13T15:47:32.670Z,-1.80
2018-12-13T15:50:00.140Z,-1.70
2018-12-13T15:52:27.617Z,-1.80
2018-12-13T15:54:55.104Z,-1.80
2018-12-13T15:57:22.585Z,-1.80
2018-12-13T15:59:50.695Z,-1.80
2018-12-13T16:02:18.478Z,-1.70
2018-12-13T16:04:45.951Z,-1.80
2018-12-13T16:07:13.419Z,-1.80
2018-12-13T16:09:40.914Z,-1.80
2018-12-13T16:12:08.367Z,-1.80
2018-12-13T16:14:35.850Z,-1.80
2018-12-13T16:17:03.367Z,-1.80
2018-12-13T16:19:30.816Z,-1.80
2018-12-13T16:21:58.311Z,-1.80
2018-12-13T16:24:25.776Z,-1.80
2018-12-13T16:26:53.225Z,-1.80
2018-12-13T16:29:20.669Z,-1.80
2018-12-13T16:31:48.140Z,-1.80
2018-12-13T16:34:15.614Z,-1.80
2018-12-13T16:36:43.071Z,-1.80
2018-12-13T16:39:10.537Z,-1.80
2018-12-13T16:41:37.999Z,-1.90
2018-12-13T16:44:05.461Z,-1.90
2018-12-13T16:46:32.940Z,-1.90
2018-12-13T16:49:00.396Z,-1.80
2018-12-13T16:51:27.880Z,-1.80
2018-12-13T16:53:55.336Z,-1.80
2018-12-13T16:56:22.808Z,-1.90
2018-12-13T16:58:52.566Z,-1.90
2018-12-13T17:01:20.044Z,-1.90
2018-12-13T17:03:47.510Z,-1.90
2018-12-13T17:06:14.981Z,-1.90
2018-12-13T17:08:42.439Z,-1.90
2018-12-13T17:11:09.929Z,-1.90
2018-12-13T17:13:37.427Z,-2.00
2018-12-13T17:16:05.466Z,-2.00
2018-12-13T17:18:32.967Z,-1.90
2018-12-13T17:21:00.421Z,-1.90
2018-12-13T17:23:27.882Z,-2.00
2018-12-13T17:25:55.359Z,-2.00
2018-12-13T17:28:22.848Z,-2.00
2018-12-13T17:30:50.303Z,-1.90
2018-12-13T17:33:17.776Z,-1.90
2018-12-13T17:35:45.245Z,-1.90
2018-12-13T17:38:12.726Z,-1.90
2018-12-13T17:40:40.224Z,-2.00
2018-12-13T17:43:07.720Z,-2.10
2018-12-13T17:45:36.314Z,-2.10
2018-12-13T17:48:03.791Z,-2.20
2018-12-13T17:50:32.213Z,-2.10
2018-12-13T17:52:59.704Z,-2.10
2018-12-13T17:55:27.166Z,-2.00
2018-12-13T17:57:54.636Z,-2.00
2018-12-13T18:00:22.107Z,-2.00
2018-12-13T18:02:49.668Z,-2.00
2018-12-13T18:05:17.132Z,-2.00
2018-12-13T18:07:44.602Z,-1.90
2018-12-13T18:10:12.110Z,-1.90
2018-12-13T18:12:39.579Z,-1.90
2018-12-13T18:15:07.056Z,-1.90
2018-12-13T18:17:34.545Z,-1.90
2018-12-13T18:20:02.037Z,-1.90
2018-12-13T18:22:29.515Z,-1.90
2018-12-13T18:24:57.500Z,-1.90
2018-12-13T18:27:24.999Z,-1.90
2018-12-13T18:29:52.499Z,-1.80
2018-12-13T18:32:19.977Z,-1.80
2018-12-13T18:34:47.489Z,-1.90
2018-12-13T18:37:14.975Z,-1.90
2018-12-13T18:39:42.482Z,-1.90
2018-12-13T18:44:36.230Z,-1.90
2018-12-13T18:47:03.784Z,-1.90
2018-12-13T18:49:31.246Z,-2.00
2018-12-13T18:51:58.747Z,-1.90
2018-12-13T18:54:27.129Z,-2.00
2018-12-13T18:56:54.987Z,-2.00
2018-12-13T18:59:23.377Z,-1.90
2018-12-13T19:01:50.858Z,-2.00
2018-12-13T19:04:18.406Z,-1.90
2018-12-13T19:06:45.894Z,-1.90
2018-12-13T19:09:13.409Z,-1.90
2018-12-13T19:11:40.907Z,-1.90
2018-12-13T19:14:08.679Z,-1.90
2018-12-13T19:16:36.147Z,-1.90
2018-12-13T19:19:03.702Z,-1.80
2018-12-13T19:21:32.076Z,-1.80
2018-12-13T19:23:59.596Z,-1.80
2018-12-13T19:26:27.072Z,-1.80
2018-12-13T19:28:54.548Z,-1.80
2018-12-13T19:31:22.033Z,-1.90
2018-12-13T19:33:50.369Z,-1.90
2018-12-13T19:36:18.072Z,-1.90
2018-12-13T19:38:46.552Z,-1.90
2018-12-13T19:41:14.045Z,-1.90
2018-12-13T19:43:43.233Z,-1.90
2018-12-13T19:46:10.725Z,-1.90
2018-12-13T19:48:38.238Z,-1.90
2018-12-13T19:51:05.906Z,-1.90
2018-12-13T19:53:33.421Z,-1.80
2018-12-13T19:56:00.875Z,-1.90
2018-12-13T19:58:29.146Z,-1.80
2018-12-13T20:00:56.626Z,-1.80
2018-12-13T20:03:24.198Z,-1.90
2018-12-13T20:05:51.678Z,-1.80
2018-12-13T20:08:19.165Z,-1.90
2018-12-13T20:10:47.001Z,-1.90
2018-12-13T20:13:14.449Z,-1.90
2018-12-13T20:15:41.964Z,-1.90
2018-12-13T20:18:09.434Z,-1.80
2018-12-13T20:20:36.910Z,-1.80
2018-12-13T20:23:04.398Z,-1.90
2018-12-13T20:25:31.860Z,-1.90
2018-12-13T20:27:59.319Z,-1.90
2018-12-13T20:30:26.829Z,-2.00
2018-12-13T20:32:54.323Z,-1.90
2018-12-13T20:35:22.027Z,-1.90
2018-12-13T20:37:49.486Z,-1.90
2018-12-13T20:40:16.945Z,-2.00
2018-12-13T20:42:44.418Z,-1.90
2018-12-13T20:45:11.899Z,-2.00
2018-12-13T20:47:39.390Z,-2.00
2018-12-13T20:50:07.808Z,-1.90
2018-12-13T20:52:35.278Z,-1.90
2018-12-13T20:55:02.989Z,-1.90
2018-12-13T20:57:30.455Z,-1.90
2018-12-13T20:59:57.939Z,-1.90
2018-12-13T21:02:25.429Z,-1.90
2018-12-13T21:04:52.906Z,-1.90
2018-12-13T21:07:29.214Z,-1.90
2018-12-13T21:09:56.712Z,-1.90
2018-12-13T21:12:24.187Z,-1.90
2018-12-13T21:14:51.678Z,-1.80
2018-12-13T21:17:19.237Z,-1.80
2018-12-13T21:19:46.745Z,-1.90
2018-12-13T21:22:14.225Z,-1.80
2018-12-13T21:24:41.965Z,-1.80
2018-12-13T21:27:09.442Z,-1.80
2018-12-13T21:29:36.937Z,-1.80
2018-12-13T21:32:04.459Z,-1.80
2018-12-13T21:34:32.146Z,-1.70
2018-12-13T21:36:59.620Z,-1.80
2018-12-13T21:39:27.126Z,-1.80
2018-12-13T21:41:54.602Z,-1.80
2018-12-13T21:44:22.129Z,-1.70
2018-12-13T21:46:49.634Z,-1.80
2018-12-13T21:49:17.161Z,-1.80
2018-12-13T21:51:44.687Z,-1.80
2018-12-13T21:54:12.152Z,-1.80
2018-12-13T21:56:41.643Z,-1.80
2018-12-13T21:59:09.130Z,-1.80
2018-12-13T22:01:36.655Z,-1.80
2018-12-13T22:04:04.165Z,-1.80
2018-12-13T22:06:31.670Z,-1.80
2018-12-13T22:08:59.141Z,-1.80
2018-12-13T22:11:26.678Z,-1.80
2018-12-13T22:13:54.159Z,-1.80
2018-12-13T22:16:21.694Z,-1.80
2018-12-13T22:18:49.161Z,-1.80
2018-12-13T22:21:16.652Z,-1.80
2018-12-13T22:23:44.129Z,-1.80
2018-12-13T22:26:11.610Z,-1.90
2018-12-13T22:28:39.094Z,-1.80
2018-12-13T22:31:06.564Z,-1.80
2018-12-13T22:33:34.013Z,-1.80
2018-12-13T22:36:01.478Z,-1.80
2018-12-13T22:38:28.965Z,-1.90
2018-12-13T22:40:56.440Z,-1.90
2018-12-13T22:43:24.999Z,-2.00
2018-12-13T22:45:52.746Z,-1.90
2018-12-13T22:48:20.244Z,-1.90
2018-12-13T22:50:47.836Z,-1.90
2018-12-13T22:53:15.330Z,-1.90
2018-12-13T22:55:42.808Z,-1.90
2018-12-13T22:58:10.341Z,-1.90
2018-12-13T23:00:37.865Z,-1.90
2018-12-13T23:03:05.438Z,-2.00
2018-12-13T23:05:33.175Z,-2.00
2018-12-13T23:08:00.643Z,-1.90
2018-12-13T23:10:28.093Z,-2.00
2018-12-13T23:12:55.544Z,-2.00
2018-12-13T23:15:24.058Z,-2.00
2018-12-13T23:17:51.515Z,-2.00
2018-12-13T23:20:18.987Z,-2.00
2018-12-13T23:22:46.498Z,-2.00
2018-12-13T23:25:13.994Z,-2.00
2018-12-13T23:27:41.728Z,-2.00
2018-12-13T23:30:09.383Z,-2.00
2018-12-13T23:32:37.742Z,-2.00
2018-12-13T23:35:05.731Z,-2.00
2018-12-13T23:37:33.195Z,-2.00
2018-12-13T23:40:00.670Z,-2.00
2018-12-13T23:42:28.296Z,-2.00
2018-12-13T23:44:55.741Z,-2.00
2018-12-13T23:47:23.741Z,-2.00
2018-12-13T23:49:51.218Z,-2.00
2018-12-13T23:52:20.020Z,-2.00
2018-12-13T23:54:47.477Z,-2.10
2018-12-13T23:57:14.973Z,-2.10
2018-12-13T23:59:42.424Z,-2.10
